Clarksville, Ohio
Current Conditions -  °F | °C
As of 3:54 PM on Thursday 18 Dec 2014 (Local Time) from KILN Reporting Station
Overcast Overcast  
Wind Chill: 28°   Ceiling: 2000
Heat Index: 28°   Visibility: 10mi
Dew Point: 19°   Wind: 3mph
Humidity: 69%   Direction: 290°WNW
Pressure: 30.19"   Gusts: NA
Location:  39.4°N, 83.98°W
Report Text: KILN 182054Z AUTO 29003KT 10SM OVC020 M02/M07 A3019 RMK AO2 SLP255 T10221072 56007
Loading
Personal Weather Stations






























Interactive Weather Map New forecast layout! Learn more

10-Day Weather Forecast

Advertisements
Track Severe Weather on mobile